sensor_id;sensor_type;location;lat;lon;timestamp;P1;durP1;ratioP1;P2;durP2;ratioP2
4821;SDS011;2425;47.794;13.068;2022-08-21T00:00:32;1.30;;;1.30;;
4821;SDS011;2425;47.794;13.068;2022-08-21T00:03:00;1.37;;;1.37;;
4821;SDS011;2425;47.794;13.068;2022-08-21T00:05:30;1.70;;;1.60;;
4821;SDS011;2425;47.794;13.068;2022-08-21T00:07:58;1.63;;;1.63;;
4821;SDS011;2425;47.794;13.068;2022-08-21T00:10:25;1.53;;;1.43;;
4821;SDS011;2425;47.794;13.068;2022-08-21T00:12:52;1.70;;;1.70;;
4821;SDS011;2425;47.794;13.068;2022-08-21T00:15:21;1.37;;;1.37;;
4821;SDS011;2425;47.794;13.068;2022-08-21T00:17:49;1.93;;;1.60;;
4821;SDS011;2425;47.794;13.068;2022-08-21T00:20:16;1.37;;;1.33;;
4821;SDS011;2425;47.794;13.068;2022-08-21T00:22:45;1.70;;;1.60;;
4821;SDS011;2425;47.794;13.068;2022-08-21T00:25:12;1.03;;;1.03;;
4821;SDS011;2425;47.794;13.068;2022-08-21T00:27:40;1.60;;;1.50;;
4821;SDS011;2425;47.794;13.068;2022-08-21T00:30:09;1.30;;;1.30;;
4821;SDS011;2425;47.794;13.068;2022-08-21T00:32:38;1.47;;;1.47;;
4821;SDS011;2425;47.794;13.068;2022-08-21T00:35:05;1.30;;;1.30;;
4821;SDS011;2425;47.794;13.068;2022-08-21T00:37:33;1.40;;;1.40;;
4821;SDS011;2425;47.794;13.068;2022-08-21T00:40:01;1.40;;;1.40;;
4821;SDS011;2425;47.794;13.068;2022-08-21T00:42:29;1.73;;;1.73;;
4821;SDS011;2425;47.794;13.068;2022-08-21T00:44:56;1.43;;;1.43;;
4821;SDS011;2425;47.794;13.068;2022-08-21T00:47:23;1.33;;;1.20;;
4821;SDS011;2425;47.794;13.068;2022-08-21T00:49:50;1.33;;;1.33;;
4821;SDS011;2425;47.794;13.068;2022-08-21T00:52:17;1.30;;;1.30;;
4821;SDS011;2425;47.794;13.068;2022-08-21T00:54:46;1.03;;;1.03;;
4821;SDS011;2425;47.794;13.068;2022-08-21T00:57:16;1.43;;;1.33;;
4821;SDS011;2425;47.794;13.068;2022-08-21T00:59:45;1.10;;;1.10;;
4821;SDS011;2425;47.794;13.068;2022-08-21T01:02:15;1.47;;;1.47;;
4821;SDS011;2425;47.794;13.068;2022-08-21T01:04:42;1.30;;;1.30;;
4821;SDS011;2425;47.794;13.068;2022-08-21T01:07:10;1.33;;;1.33;;
4821;SDS011;2425;47.794;13.068;2022-08-21T01:09:37;1.20;;;1.20;;
4821;SDS011;2425;47.794;13.068;2022-08-21T01:12:05;1.23;;;1.23;;
4821;SDS011;2425;47.794;13.068;2022-08-21T01:14:34;1.43;;;1.33;;
4821;SDS011;2425;47.794;13.068;2022-08-21T01:17:01;1.30;;;1.30;;
4821;SDS011;2425;47.794;13.068;2022-08-21T01:19:32;1.40;;;1.40;;
4821;SDS011;2425;47.794;13.068;2022-08-21T01:22:16;1.50;;;1.50;;
4821;SDS011;2425;47.794;13.068;2022-08-21T01:24:56;1.10;;;1.10;;
4821;SDS011;2425;47.794;13.068;2022-08-21T01:27:23;1.30;;;1.30;;
4821;SDS011;2425;47.794;13.068;2022-08-21T01:29:51;1.30;;;1.30;;
4821;SDS011;2425;47.794;13.068;2022-08-21T01:32:22;1.20;;;1.20;;
4821;SDS011;2425;47.794;13.068;2022-08-21T01:34:50;1.03;;;1.03;;
4821;SDS011;2425;47.794;13.068;2022-08-21T01:37:19;1.23;;;1.23;;
4821;SDS011;2425;47.794;13.068;2022-08-21T01:39:47;1.10;;;1.10;;
4821;SDS011;2425;47.794;13.068;2022-08-21T01:42:14;1.27;;;1.27;;
4821;SDS011;2425;47.794;13.068;2022-08-21T01:44:41;1.10;;;1.10;;
4821;SDS011;2425;47.794;13.068;2022-08-21T01:47:10;1.00;;;1.00;;
4821;SDS011;2425;47.794;13.068;2022-08-21T01:49:38;1.60;;;1.60;;
4821;SDS011;2425;47.794;13.068;2022-08-21T01:52:06;1.30;;;1.30;;
4821;SDS011;2425;47.794;13.068;2022-08-21T01:54:35;1.20;;;1.20;;
4821;SDS011;2425;47.794;13.068;2022-08-21T01:57:02;1.30;;;1.30;;
4821;SDS011;2425;47.794;13.068;2022-08-21T01:59:29;1.20;;;1.20;;
4821;SDS011;2425;47.794;13.068;2022-08-21T02:01:56;1.30;;;1.30;;
4821;SDS011;2425;47.794;13.068;2022-08-21T02:04:23;1.30;;;1.30;;
4821;SDS011;2425;47.794;13.068;2022-08-21T02:06:50;1.30;;;1.30;;
4821;SDS011;2425;47.794;13.068;2022-08-21T02:09:17;1.10;;;1.10;;
4821;SDS011;2425;47.794;13.068;2022-08-21T02:11:45;1.20;;;1.20;;
4821;SDS011;2425;47.794;13.068;2022-08-21T02:14:12;1.10;;;1.10;;
4821;SDS011;2425;47.794;13.068;2022-08-21T02:16:41;0.90;;;0.90;;
4821;SDS011;2425;47.794;13.068;2022-08-21T02:19:09;1.10;;;1.10;;
4821;SDS011;2425;47.794;13.068;2022-08-21T02:21:36;1.37;;;1.27;;
4821;SDS011;2425;47.794;13.068;2022-08-21T02:24:03;1.20;;;1.10;;
4821;SDS011;2425;47.794;13.068;2022-08-21T02:26:30;1.03;;;1.03;;
4821;SDS011;2425;47.794;13.068;2022-08-21T02:28:58;1.20;;;1.20;;
4821;SDS011;2425;47.794;13.068;2022-08-21T02:31:25;1.20;;;1.20;;
4821;SDS011;2425;47.794;13.068;2022-08-21T02:33:52;1.00;;;1.00;;
4821;SDS011;2425;47.794;13.068;2022-08-21T02:36:19;1.00;;;1.00;;
4821;SDS011;2425;47.794;13.068;2022-08-21T02:38:46;1.07;;;1.07;;
4821;SDS011;2425;47.794;13.068;2022-08-21T02:41:15;0.93;;;0.93;;
4821;SDS011;2425;47.794;13.068;2022-08-21T02:43:43;1.00;;;1.00;;
4821;SDS011;2425;47.794;13.068;2022-08-21T02:46:13;1.10;;;1.10;;
4821;SDS011;2425;47.794;13.068;2022-08-21T02:48:41;1.10;;;1.10;;
4821;SDS011;2425;47.794;13.068;2022-08-21T02:51:09;1.10;;;1.10;;
4821;SDS011;2425;47.794;13.068;2022-08-21T02:53:38;1.10;;;1.10;;
4821;SDS011;2425;47.794;13.068;2022-08-21T02:56:07;1.50;;;1.50;;
4821;SDS011;2425;47.794;13.068;2022-08-21T02:58:36;1.10;;;1.10;;
4821;SDS011;2425;47.794;13.068;2022-08-21T03:01:05;1.10;;;1.10;;
4821;SDS011;2425;47.794;13.068;2022-08-21T03:03:36;0.80;;;0.80;;
4821;SDS011;2425;47.794;13.068;2022-08-21T03:06:04;1.00;;;1.00;;
4821;SDS011;2425;47.794;13.068;2022-08-21T03:08:33;1.37;;;1.30;;
4821;SDS011;2425;47.794;13.068;2022-08-21T03:11:00;1.00;;;1.00;;
4821;SDS011;2425;47.794;13.068;2022-08-21T03:13:27;1.00;;;1.00;;
4821;SDS011;2425;47.794;13.068;2022-08-21T03:15:54;1.83;;;1.10;;
4821;SDS011;2425;47.794;13.068;2022-08-21T03:18:21;1.10;;;1.10;;
4821;SDS011;2425;47.794;13.068;2022-08-21T03:20:50;0.97;;;0.97;;
4821;SDS011;2425;47.794;13.068;2022-08-21T03:23:17;1.00;;;1.00;;
4821;SDS011;2425;47.794;13.068;2022-08-21T03:25:45;0.90;;;0.90;;
4821;SDS011;2425;47.794;13.068;2022-08-21T03:28:13;0.90;;;0.90;;
4821;SDS011;2425;47.794;13.068;2022-08-21T03:30:41;1.00;;;1.00;;
4821;SDS011;2425;47.794;13.068;2022-08-21T03:33:09;1.10;;;1.10;;
4821;SDS011;2425;47.794;13.068;2022-08-21T03:35:36;1.07;;;1.07;;
4821;SDS011;2425;47.794;13.068;2022-08-21T03:38:04;1.00;;;1.00;;
4821;SDS011;2425;47.794;13.068;2022-08-21T03:40:31;1.00;;;1.00;;
4821;SDS011;2425;47.794;13.068;2022-08-21T03:42:57;1.10;;;1.10;;
4821;SDS011;2425;47.794;13.068;2022-08-21T03:45:25;0.97;;;0.97;;
4821;SDS011;2425;47.794;13.068;2022-08-21T03:47:53;1.10;;;1.10;;
4821;SDS011;2425;47.794;13.068;2022-08-21T03:50:22;1.00;;;1.00;;
4821;SDS011;2425;47.794;13.068;2022-08-21T03:52:50;0.90;;;0.90;;
4821;SDS011;2425;47.794;13.068;2022-08-21T03:55:18;1.00;;;1.00;;
4821;SDS011;2425;47.794;13.068;2022-08-21T03:57:45;1.00;;;1.00;;
4821;SDS011;2425;47.794;13.068;2022-08-21T04:00:12;0.90;;;0.90;;
4821;SDS011;2425;47.794;13.068;2022-08-21T04:02:40;0.87;;;0.87;;
4821;SDS011;2425;47.794;13.068;2022-08-21T04:05:08;1.20;;;1.10;;
4821;SDS011;2425;47.794;13.068;2022-08-21T04:07:35;0.80;;;0.80;;
4821;SDS011;2425;47.794;13.068;2022-08-21T04:10:02;0.90;;;0.90;;
4821;SDS011;2425;47.794;13.068;2022-08-21T04:12:30;0.90;;;0.90;;
4821;SDS011;2425;47.794;13.068;2022-08-21T04:14:57;0.80;;;0.80;;
4821;SDS011;2425;47.794;13.068;2022-08-21T04:17:24;1.10;;;1.10;;
4821;SDS011;2425;47.794;13.068;2022-08-21T04:19:51;1.13;;;1.13;;
4821;SDS011;2425;47.794;13.068;2022-08-21T04:22:19;0.80;;;0.80;;
4821;SDS011;2425;47.794;13.068;2022-08-21T04:24:46;0.90;;;0.90;;
4821;SDS011;2425;47.794;13.068;2022-08-21T04:27:12;0.80;;;0.80;;
4821;SDS011;2425;47.794;13.068;2022-08-21T04:29:40;0.90;;;0.90;;
4821;SDS011;2425;47.794;13.068;2022-08-21T04:32:07;1.00;;;1.00;;
4821;SDS011;2425;47.794;13.068;2022-08-21T04:34:34;0.97;;;0.97;;
4821;SDS011;2425;47.794;13.068;2022-08-21T04:37:01;1.00;;;1.00;;
4821;SDS011;2425;47.794;13.068;2022-08-21T04:39:28;1.10;;;1.00;;
4821;SDS011;2425;47.794;13.068;2022-08-21T04:41:54;1.00;;;1.00;;
4821;SDS011;2425;47.794;13.068;2022-08-21T04:44:21;0.70;;;0.70;;
4821;SDS011;2425;47.794;13.068;2022-08-21T04:46:50;0.70;;;0.70;;
4821;SDS011;2425;47.794;13.068;2022-08-21T04:49:16;1.00;;;1.00;;
4821;SDS011;2425;47.794;13.068;2022-08-21T04:51:43;1.10;;;1.10;;
4821;SDS011;2425;47.794;13.068;2022-08-21T04:54:26;0.80;;;0.80;;
4821;SDS011;2425;47.794;13.068;2022-08-21T04:56:53;0.83;;;0.83;;
4821;SDS011;2425;47.794;13.068;2022-08-21T04:59:22;0.90;;;0.90;;
4821;SDS011;2425;47.794;13.068;2022-08-21T05:01:52;0.80;;;0.80;;
4821;SDS011;2425;47.794;13.068;2022-08-21T05:04:21;1.10;;;1.10;;
4821;SDS011;2425;47.794;13.068;2022-08-21T05:06:52;1.00;;;1.00;;
4821;SDS011;2425;47.794;13.068;2022-08-21T05:09:20;0.73;;;0.73;;
4821;SDS011;2425;47.794;13.068;2022-08-21T05:11:48;0.90;;;0.90;;
4821;SDS011;2425;47.794;13.068;2022-08-21T05:14:16;0.80;;;0.80;;
4821;SDS011;2425;47.794;13.068;2022-08-21T05:16:44;1.10;;;1.10;;
4821;SDS011;2425;47.794;13.068;2022-08-21T05:19:12;0.67;;;0.67;;
4821;SDS011;2425;47.794;13.068;2022-08-21T05:21:40;0.80;;;0.80;;
4821;SDS011;2425;47.794;13.068;2022-08-21T05:24:08;0.60;;;0.60;;
4821;SDS011;2425;47.794;13.068;2022-08-21T05:26:35;1.03;;;0.90;;
4821;SDS011;2425;47.794;13.068;2022-08-21T05:29:02;0.80;;;0.80;;
4821;SDS011;2425;47.794;13.068;2022-08-21T05:31:29;0.90;;;0.90;;
4821;SDS011;2425;47.794;13.068;2022-08-21T05:33:55;0.90;;;0.90;;
4821;SDS011;2425;47.794;13.068;2022-08-21T05:36:24;0.60;;;0.60;;
4821;SDS011;2425;47.794;13.068;2022-08-21T05:38:51;0.80;;;0.80;;
4821;SDS011;2425;47.794;13.068;2022-08-21T05:41:18;0.70;;;0.70;;
4821;SDS011;2425;47.794;13.068;2022-08-21T05:43:45;0.60;;;0.60;;
4821;SDS011;2425;47.794;13.068;2022-08-21T05:46:12;0.90;;;0.90;;
4821;SDS011;2425;47.794;13.068;2022-08-21T05:48:38;0.70;;;0.70;;
4821;SDS011;2425;47.794;13.068;2022-08-21T05:51:06;0.83;;;0.83;;
4821;SDS011;2425;47.794;13.068;2022-08-21T05:53:35;0.90;;;0.90;;
4821;SDS011;2425;47.794;13.068;2022-08-21T05:56:03;0.77;;;0.77;;
4821;SDS011;2425;47.794;13.068;2022-08-21T05:58:31;0.80;;;0.80;;
4821;SDS011;2425;47.794;13.068;2022-08-21T06:00:59;0.80;;;0.80;;
4821;SDS011;2425;47.794;13.068;2022-08-21T06:03:27;0.87;;;0.87;;
4821;SDS011;2425;47.794;13.068;2022-08-21T06:05:55;0.70;;;0.70;;
4821;SDS011;2425;47.794;13.068;2022-08-21T06:08:22;0.90;;;0.90;;
4821;SDS011;2425;47.794;13.068;2022-08-21T06:10:51;0.80;;;0.80;;
4821;SDS011;2425;47.794;13.068;2022-08-21T06:13:19;0.80;;;0.80;;
4821;SDS011;2425;47.794;13.068;2022-08-21T06:15:47;0.93;;;0.93;;
4821;SDS011;2425;47.794;13.068;2022-08-21T06:18:14;0.90;;;0.90;;
4821;SDS011;2425;47.794;13.068;2022-08-21T06:20:41;0.70;;;0.70;;
4821;SDS011;2425;47.794;13.068;2022-08-21T06:23:08;0.60;;;0.60;;
4821;SDS011;2425;47.794;13.068;2022-08-21T06:25:35;0.80;;;0.80;;
4821;SDS011;2425;47.794;13.068;2022-08-21T06:28:04;0.80;;;0.80;;
4821;SDS011;2425;47.794;13.068;2022-08-21T06:30:32;0.93;;;0.93;;
4821;SDS011;2425;47.794;13.068;2022-08-21T06:33:00;0.80;;;0.80;;
4821;SDS011;2425;47.794;13.068;2022-08-21T06:35:28;0.90;;;0.90;;
4821;SDS011;2425;47.794;13.068;2022-08-21T06:37:55;0.70;;;0.70;;
4821;SDS011;2425;47.794;13.068;2022-08-21T06:40:22;0.90;;;0.90;;
4821;SDS011;2425;47.794;13.068;2022-08-21T06:42:49;0.70;;;0.70;;
4821;SDS011;2425;47.794;13.068;2022-08-21T06:45:17;0.80;;;0.80;;
4821;SDS011;2425;47.794;13.068;2022-08-21T06:47:44;0.90;;;0.90;;
4821;SDS011;2425;47.794;13.068;2022-08-21T06:50:11;0.70;;;0.70;;
4821;SDS011;2425;47.794;13.068;2022-08-21T06:52:37;0.73;;;0.73;;
4821;SDS011;2425;47.794;13.068;2022-08-21T06:55:05;0.60;;;0.60;;
4821;SDS011;2425;47.794;13.068;2022-08-21T06:57:33;0.67;;;0.67;;
4821;SDS011;2425;47.794;13.068;2022-08-21T07:00:00;0.77;;;0.77;;
4821;SDS011;2425;47.794;13.068;2022-08-21T07:02:29;0.70;;;0.70;;
4821;SDS011;2425;47.794;13.068;2022-08-21T07:04:58;0.90;;;0.90;;
4821;SDS011;2425;47.794;13.068;2022-08-21T07:07:25;0.60;;;0.60;;
4821;SDS011;2425;47.794;13.068;2022-08-21T07:09:51;0.63;;;0.63;;
4821;SDS011;2425;47.794;13.068;2022-08-21T07:12:18;0.80;;;0.80;;
4821;SDS011;2425;47.794;13.068;2022-08-21T07:14:45;1.10;;;0.80;;
4821;SDS011;2425;47.794;13.068;2022-08-21T07:17:12;0.80;;;0.80;;
4821;SDS011;2425;47.794;13.068;2022-08-21T07:19:40;0.80;;;0.80;;
4821;SDS011;2425;47.794;13.068;2022-08-21T07:22:07;0.80;;;0.80;;
4821;SDS011;2425;47.794;13.068;2022-08-21T07:24:34;0.80;;;0.80;;
4821;SDS011;2425;47.794;13.068;2022-08-21T07:27:01;0.60;;;0.60;;
4821;SDS011;2425;47.794;13.068;2022-08-21T07:29:27;0.80;;;0.80;;
4821;SDS011;2425;47.794;13.068;2022-08-21T07:31:54;0.67;;;0.67;;
4821;SDS011;2425;47.794;13.068;2022-08-21T07:34:21;0.77;;;0.77;;
4821;SDS011;2425;47.794;13.068;2022-08-21T07:36:49;0.70;;;0.70;;
4821;SDS011;2425;47.794;13.068;2022-08-21T07:39:17;0.80;;;0.80;;
4821;SDS011;2425;47.794;13.068;2022-08-21T07:41:43;0.57;;;0.57;;
4821;SDS011;2425;47.794;13.068;2022-08-21T07:44:10;0.70;;;0.70;;
4821;SDS011;2425;47.794;13.068;2022-08-21T07:46:37;0.60;;;0.60;;
4821;SDS011;2425;47.794;13.068;2022-08-21T07:49:04;0.67;;;0.67;;
4821;SDS011;2425;47.794;13.068;2022-08-21T07:51:31;0.60;;;0.60;;
4821;SDS011;2425;47.794;13.068;2022-08-21T07:54:00;0.63;;;0.63;;
4821;SDS011;2425;47.794;13.068;2022-08-21T07:56:27;0.73;;;0.73;;
4821;SDS011;2425;47.794;13.068;2022-08-21T07:58:55;0.60;;;0.60;;
4821;SDS011;2425;47.794;13.068;2022-08-21T08:01:23;0.50;;;0.50;;
4821;SDS011;2425;47.794;13.068;2022-08-21T08:03:50;0.80;;;0.80;;
4821;SDS011;2425;47.794;13.068;2022-08-21T08:06:17;0.50;;;0.50;;
4821;SDS011;2425;47.794;13.068;2022-08-21T08:08:44;0.60;;;0.60;;
4821;SDS011;2425;47.794;13.068;2022-08-21T08:11:13;0.53;;;0.53;;
4821;SDS011;2425;47.794;13.068;2022-08-21T08:13:42;0.70;;;0.70;;
4821;SDS011;2425;47.794;13.068;2022-08-21T08:16:13;0.60;;;0.60;;
4821;SDS011;2425;47.794;13.068;2022-08-21T08:18:41;0.67;;;0.67;;
4821;SDS011;2425;47.794;13.068;2022-08-21T08:21:10;0.50;;;0.50;;
4821;SDS011;2425;47.794;13.068;2022-08-21T08:23:38;0.77;;;0.77;;
4821;SDS011;2425;47.794;13.068;2022-08-21T08:26:05;0.83;;;0.83;;
4821;SDS011;2425;47.794;13.068;2022-08-21T08:28:33;0.70;;;0.70;;
4821;SDS011;2425;47.794;13.068;2022-08-21T08:31:00;0.50;;;0.50;;
4821;SDS011;2425;47.794;13.068;2022-08-21T08:33:27;0.70;;;0.70;;
4821;SDS011;2425;47.794;13.068;2022-08-21T08:35:54;0.60;;;0.60;;
4821;SDS011;2425;47.794;13.068;2022-08-21T08:38:21;0.40;;;0.40;;
4821;SDS011;2425;47.794;13.068;2022-08-21T08:40:50;0.57;;;0.57;;
4821;SDS011;2425;47.794;13.068;2022-08-21T08:43:19;0.50;;;0.50;;
4821;SDS011;2425;47.794;13.068;2022-08-21T08:45:48;0.50;;;0.50;;
4821;SDS011;2425;47.794;13.068;2022-08-21T08:48:19;0.63;;;0.63;;
4821;SDS011;2425;47.794;13.068;2022-08-21T08:50:58;0.60;;;0.60;;
4821;SDS011;2425;47.794;13.068;2022-08-21T08:53:28;0.60;;;0.60;;
4821;SDS011;2425;47.794;13.068;2022-08-21T08:55:57;0.60;;;0.60;;
4821;SDS011;2425;47.794;13.068;2022-08-21T08:58:29;0.57;;;0.57;;
4821;SDS011;2425;47.794;13.068;2022-08-21T09:00:59;0.57;;;0.57;;
4821;SDS011;2425;47.794;13.068;2022-08-21T09:03:28;1.33;;;1.07;;
4821;SDS011;2425;47.794;13.068;2022-08-21T09:05:56;1.83;;;1.73;;
4821;SDS011;2425;47.794;13.068;2022-08-21T09:08:38;1.67;;;1.57;;
4821;SDS011;2425;47.794;13.068;2022-08-21T09:11:15;2.93;;;1.70;;
4821;SDS011;2425;47.794;13.068;2022-08-21T09:13:50;2.60;;;1.50;;
4821;SDS011;2425;47.794;13.068;2022-08-21T09:16:24;2.97;;;1.87;;
4821;SDS011;2425;47.794;13.068;2022-08-21T09:18:59;2.53;;;2.33;;
4821;SDS011;2425;47.794;13.068;2022-08-21T09:21:34;2.97;;;1.30;;
4821;SDS011;2425;47.794;13.068;2022-08-21T09:24:10;4.10;;;1.53;;
4821;SDS011;2425;47.794;13.068;2022-08-21T09:26:44;2.10;;;1.50;;
4821;SDS011;2425;47.794;13.068;2022-08-21T09:29:14;1.30;;;1.20;;
4821;SDS011;2425;47.794;13.068;2022-08-21T09:31:44;1.67;;;1.60;;
4821;SDS011;2425;47.794;13.068;2022-08-21T09:34:11;1.57;;;1.47;;
4821;SDS011;2425;47.794;13.068;2022-08-21T09:36:39;1.73;;;1.63;;
4821;SDS011;2425;47.794;13.068;2022-08-21T09:39:08;1.90;;;1.80;;
4821;SDS011;2425;47.794;13.068;2022-08-21T09:41:36;2.30;;;1.73;;
4821;SDS011;2425;47.794;13.068;2022-08-21T09:44:04;1.87;;;1.77;;
4821;SDS011;2425;47.794;13.068;2022-08-21T09:46:32;11.70;;;2.00;;
4821;SDS011;2425;47.794;13.068;2022-08-21T09:49:03;3.80;;;1.50;;
4821;SDS011;2425;47.794;13.068;2022-08-21T09:51:30;2.03;;;1.83;;
4821;SDS011;2425;47.794;13.068;2022-08-21T09:54:07;4.43;;;1.20;;
4821;SDS011;2425;47.794;13.068;2022-08-21T09:56:51;1.80;;;1.63;;
4821;SDS011;2425;47.794;13.068;2022-08-21T09:59:36;2.00;;;1.80;;
4821;SDS011;2425;47.794;13.068;2022-08-21T10:02:07;2.10;;;1.50;;
4821;SDS011;2425;47.794;13.068;2022-08-21T10:04:54;5.03;;;1.70;;
4821;SDS011;2425;47.794;13.068;2022-08-21T10:07:23;1.60;;;1.50;;
4821;SDS011;2425;47.794;13.068;2022-08-21T10:09:59;6.13;;;1.90;;
4821;SDS011;2425;47.794;13.068;2022-08-21T10:12:29;3.50;;;1.90;;
4821;SDS011;2425;47.794;13.068;2022-08-21T10:15:06;2.20;;;1.73;;
4821;SDS011;2425;47.794;13.068;2022-08-21T10:17:41;3.57;;;2.00;;
4821;SDS011;2425;47.794;13.068;2022-08-21T10:20:14;4.67;;;1.90;;
4821;SDS011;2425;47.794;13.068;2022-08-21T10:22:45;3.27;;;2.00;;
4821;SDS011;2425;47.794;13.068;2022-08-21T10:25:18;2.07;;;1.70;;
4821;SDS011;2425;47.794;13.068;2022-08-21T10:27:51;2.80;;;1.77;;
4821;SDS011;2425;47.794;13.068;2022-08-21T10:30:27;2.57;;;1.70;;
4821;SDS011;2425;47.794;13.068;2022-08-21T10:33:03;3.23;;;1.70;;
4821;SDS011;2425;47.794;13.068;2022-08-21T10:35:41;6.73;;;2.00;;
4821;SDS011;2425;47.794;13.068;2022-08-21T10:41:14;2.23;;;2.10;;
4821;SDS011;2425;47.794;13.068;2022-08-21T10:43:49;3.03;;;2.00;;
4821;SDS011;2425;47.794;13.068;2022-08-21T10:46:22;1.80;;;1.70;;
4821;SDS011;2425;47.794;13.068;2022-08-21T10:48:54;1.53;;;1.43;;
4821;SDS011;2425;47.794;13.068;2022-08-21T10:51:26;2.13;;;1.93;;
4821;SDS011;2425;47.794;13.068;2022-08-21T10:53:59;2.97;;;1.70;;
4821;SDS011;2425;47.794;13.068;2022-08-21T10:56:30;2.03;;;1.93;;
4821;SDS011;2425;47.794;13.068;2022-08-21T10:59:02;13.33;;;1.80;;
4821;SDS011;2425;47.794;13.068;2022-08-21T11:01:37;1.87;;;1.70;;
4821;SDS011;2425;47.794;13.068;2022-08-21T11:04:11;3.60;;;1.87;;
4821;SDS011;2425;47.794;13.068;2022-08-21T11:06:45;6.90;;;1.80;;
4821;SDS011;2425;47.794;13.068;2022-08-21T11:09:14;2.17;;;1.97;;
4821;SDS011;2425;47.794;13.068;2022-08-21T11:11:45;4.23;;;2.30;;
4821;SDS011;2425;47.794;13.068;2022-08-21T11:14:17;5.03;;;1.90;;
4821;SDS011;2425;47.794;13.068;2022-08-21T11:16:48;3.07;;;2.00;;
4821;SDS011;2425;47.794;13.068;2022-08-21T11:19:20;1.80;;;1.67;;
4821;SDS011;2425;47.794;13.068;2022-08-21T11:21:54;4.40;;;1.70;;
4821;SDS011;2425;47.794;13.068;2022-08-21T11:24:28;2.83;;;2.00;;
4821;SDS011;2425;47.794;13.068;2022-08-21T11:26:58;2.97;;;2.37;;
4821;SDS011;2425;47.794;13.068;2022-08-21T11:29:28;2.37;;;2.10;;
4821;SDS011;2425;47.794;13.068;2022-08-21T11:31:59;4.10;;;1.83;;
4821;SDS011;2425;47.794;13.068;2022-08-21T11:34:37;6.43;;;2.13;;
4821;SDS011;2425;47.794;13.068;2022-08-21T11:37:13;1.63;;;1.63;;
4821;SDS011;2425;47.794;13.068;2022-08-21T11:39:46;2.00;;;1.90;;
4821;SDS011;2425;47.794;13.068;2022-08-21T11:42:19;1.40;;;1.40;;
4821;SDS011;2425;47.794;13.068;2022-08-21T11:44:52;2.37;;;2.10;;
4821;SDS011;2425;47.794;13.068;2022-08-21T11:47:25;2.30;;;2.10;;
4821;SDS011;2425;47.794;13.068;2022-08-21T11:50:02;2.40;;;1.90;;
4821;SDS011;2425;47.794;13.068;2022-08-21T11:52:38;4.37;;;2.17;;
4821;SDS011;2425;47.794;13.068;2022-08-21T11:55:08;2.00;;;1.90;;
4821;SDS011;2425;47.794;13.068;2022-08-21T11:57:39;1.83;;;1.77;;
4821;SDS011;2425;47.794;13.068;2022-08-21T12:00:10;2.23;;;2.03;;
4821;SDS011;2425;47.794;13.068;2022-08-21T12:02:42;3.13;;;1.90;;
4821;SDS011;2425;47.794;13.068;2022-08-21T12:05:21;1.80;;;1.80;;
4821;SDS011;2425;47.794;13.068;2022-08-21T12:08:00;2.77;;;1.90;;
4821;SDS011;2425;47.794;13.068;2022-08-21T12:10:31;2.13;;;1.93;;
4821;SDS011;2425;47.794;13.068;2022-08-21T12:13:05;9.27;;;1.90;;
4821;SDS011;2425;47.794;13.068;2022-08-21T12:15:34;1.60;;;1.50;;
4821;SDS011;2425;47.794;13.068;2022-08-21T12:18:02;2.00;;;1.93;;
4821;SDS011;2425;47.794;13.068;2022-08-21T12:20:41;3.27;;;1.90;;
4821;SDS011;2425;47.794;13.068;2022-08-21T12:23:18;1.60;;;1.60;;
4821;SDS011;2425;47.794;13.068;2022-08-21T12:26:02;2.07;;;1.70;;
4821;SDS011;2425;47.794;13.068;2022-08-21T12:28:45;6.43;;;1.90;;
4821;SDS011;2425;47.794;13.068;2022-08-21T12:31:19;2.37;;;2.03;;
4821;SDS011;2425;47.794;13.068;2022-08-21T12:33:50;1.73;;;1.63;;
4821;SDS011;2425;47.794;13.068;2022-08-21T12:36:20;1.83;;;1.83;;
4821;SDS011;2425;47.794;13.068;2022-08-21T12:38:52;2.97;;;1.90;;
4821;SDS011;2425;47.794;13.068;2022-08-21T12:41:22;1.73;;;1.73;;
4821;SDS011;2425;47.794;13.068;2022-08-21T12:43:53;2.00;;;1.77;;
4821;SDS011;2425;47.794;13.068;2022-08-21T12:46:26;1.80;;;1.70;;
4821;SDS011;2425;47.794;13.068;2022-08-21T12:48:56;2.87;;;2.17;;
4821;SDS011;2425;47.794;13.068;2022-08-21T12:51:26;2.10;;;1.90;;
4821;SDS011;2425;47.794;13.068;2022-08-21T12:53:57;2.03;;;1.93;;
4821;SDS011;2425;47.794;13.068;2022-08-21T12:56:25;2.50;;;2.30;;
4821;SDS011;2425;47.794;13.068;2022-08-21T12:58:53;1.93;;;1.83;;
4821;SDS011;2425;47.794;13.068;2022-08-21T13:01:23;2.30;;;2.20;;
4821;SDS011;2425;47.794;13.068;2022-08-21T13:03:52;3.07;;;2.00;;
4821;SDS011;2425;47.794;13.068;2022-08-21T13:06:21;2.13;;;1.90;;
4821;SDS011;2425;47.794;13.068;2022-08-21T13:08:50;3.60;;;2.00;;
4821;SDS011;2425;47.794;13.068;2022-08-21T13:11:23;1.80;;;1.80;;
4821;SDS011;2425;47.794;13.068;2022-08-21T13:13:51;2.40;;;2.20;;
4821;SDS011;2425;47.794;13.068;2022-08-21T13:16:19;4.33;;;2.23;;
4821;SDS011;2425;47.794;13.068;2022-08-21T13:18:53;2.83;;;2.00;;
4821;SDS011;2425;47.794;13.068;2022-08-21T13:21:26;2.00;;;1.90;;
4821;SDS011;2425;47.794;13.068;2022-08-21T13:23:54;5.50;;;2.53;;
4821;SDS011;2425;47.794;13.068;2022-08-21T13:26:21;2.23;;;2.13;;
4821;SDS011;2425;47.794;13.068;2022-08-21T13:28:49;4.10;;;2.20;;
4821;SDS011;2425;47.794;13.068;2022-08-21T13:31:17;3.87;;;2.43;;
4821;SDS011;2425;47.794;13.068;2022-08-21T13:33:48;4.13;;;2.17;;
4821;SDS011;2425;47.794;13.068;2022-08-21T13:36:17;2.30;;;2.13;;
4821;SDS011;2425;47.794;13.068;2022-08-21T13:38:47;4.17;;;2.50;;
4821;SDS011;2425;47.794;13.068;2022-08-21T13:41:19;2.73;;;2.53;;
4821;SDS011;2425;47.794;13.068;2022-08-21T13:43:55;4.80;;;2.77;;
4821;SDS011;2425;47.794;13.068;2022-08-21T13:46:24;2.50;;;2.40;;
4821;SDS011;2425;47.794;13.068;2022-08-21T13:48:53;2.70;;;2.50;;
4821;SDS011;2425;47.794;13.068;2022-08-21T13:51:20;3.47;;;2.07;;
4821;SDS011;2425;47.794;13.068;2022-08-21T13:53:48;2.50;;;2.30;;
4821;SDS011;2425;47.794;13.068;2022-08-21T13:56:24;2.53;;;2.43;;
4821;SDS011;2425;47.794;13.068;2022-08-21T13:58:53;2.30;;;2.20;;
4821;SDS011;2425;47.794;13.068;2022-08-21T14:01:23;2.77;;;2.00;;
4821;SDS011;2425;47.794;13.068;2022-08-21T14:03:53;1.83;;;1.73;;
4821;SDS011;2425;47.794;13.068;2022-08-21T14:06:23;2.20;;;2.10;;
4821;SDS011;2425;47.794;13.068;2022-08-21T14:08:54;1.93;;;1.83;;
4821;SDS011;2425;47.794;13.068;2022-08-21T14:11:22;2.60;;;2.10;;
4821;SDS011;2425;47.794;13.068;2022-08-21T14:13:49;1.70;;;1.70;;
4821;SDS011;2425;47.794;13.068;2022-08-21T14:16:23;3.00;;;2.20;;
4821;SDS011;2425;47.794;13.068;2022-08-21T14:18:52;2.30;;;2.20;;
4821;SDS011;2425;47.794;13.068;2022-08-21T14:21:24;2.90;;;2.60;;
4821;SDS011;2425;47.794;13.068;2022-08-21T14:24:02;2.30;;;2.20;;
4821;SDS011;2425;47.794;13.068;2022-08-21T14:26:31;5.17;;;2.23;;
4821;SDS011;2425;47.794;13.068;2022-08-21T14:29:02;3.20;;;2.60;;
4821;SDS011;2425;47.794;13.068;2022-08-21T14:31:34;2.60;;;2.40;;
4821;SDS011;2425;47.794;13.068;2022-08-21T14:34:01;2.50;;;2.30;;
4821;SDS011;2425;47.794;13.068;2022-08-21T14:36:27;2.13;;;1.93;;
4821;SDS011;2425;47.794;13.068;2022-08-21T14:38:54;2.53;;;2.33;;
4821;SDS011;2425;47.794;13.068;2022-08-21T14:41:22;2.40;;;2.30;;
4821;SDS011;2425;47.794;13.068;2022-08-21T14:43:51;2.43;;;2.33;;
4821;SDS011;2425;47.794;13.068;2022-08-21T14:46:21;2.17;;;2.07;;
4821;SDS011;2425;47.794;13.068;2022-08-21T14:48:50;2.00;;;1.90;;
4821;SDS011;2425;47.794;13.068;2022-08-21T14:51:17;2.77;;;2.57;;
4821;SDS011;2425;47.794;13.068;2022-08-21T14:53:43;2.17;;;2.07;;
4821;SDS011;2425;47.794;13.068;2022-08-21T14:56:10;2.83;;;2.30;;
4821;SDS011;2425;47.794;13.068;2022-08-21T14:58:39;2.10;;;2.00;;
4821;SDS011;2425;47.794;13.068;2022-08-21T15:01:07;2.00;;;2.00;;
4821;SDS011;2425;47.794;13.068;2022-08-21T15:03:36;2.93;;;2.17;;
4821;SDS011;2425;47.794;13.068;2022-08-21T15:06:04;2.20;;;2.10;;
4821;SDS011;2425;47.794;13.068;2022-08-21T15:08:31;2.30;;;2.30;;
4821;SDS011;2425;47.794;13.068;2022-08-21T15:10:59;4.07;;;2.40;;
4821;SDS011;2425;47.794;13.068;2022-08-21T15:13:26;2.30;;;2.20;;
4821;SDS011;2425;47.794;13.068;2022-08-21T15:15:53;3.07;;;1.93;;